Grootegast, Netherlands
Current Conditions -  °F | °C
As of 6:55 PM on Monday 24 Nov 2014 (Local Time) from EHGG Reporting Station
Overcast Overcast  
Wind Chill: 43°   Ceiling: 4400
Heat Index: 46°   Visibility: 6mi
Dew Point: 43°   Wind: 7mph
Humidity: 87%   Direction: 240°WSW
Pressure: 30.27"   Gusts: NA
Location:  53.21°N, 6.27°E
Report Text: EHGG 241755Z AUTO 24006KT 9999 OVC044 08/06 Q1025 NOSIG
Loading
Personal Weather Stations






























Interactive Weather Map New forecast layout! Learn more

10-Day Weather Forecast

Advertisements
Track Severe Weather on mobile